Time;durP1;ratioP1;P1;durP2;ratioP2;P2;SDS_P1;SDS_P2;PMS_P1;PMS_P2;Temp;Humidity;BMP_temperature;BMP_pressure;BME280_temperature;BME280_humidity;BME280_pressure;Samples;Min_cycle;Max_cycle;Signal;HPM_P1;HPM_P2
2023/11/18 00:00:28;;;;;;;2.33;2.22;;;5.50;99.90;;;;;;5043333;28;20609;-73
2023/11/18 00:02:55;;;;;;;2.25;2.15;;;5.50;99.90;;;;;;5042189;28;20223;-74
2023/11/18 00:05:23;;;;;;;2.50;2.40;;;5.50;99.90;;;;;;5042313;28;20253;-75
2023/11/18 00:07:52;;;;;;;2.03;1.92;;;5.50;99.90;;;;;;5043473;28;20214;-75
2023/11/18 00:10:19;;;;;;;2.10;2.00;;;5.50;99.90;;;;;;5043593;28;20223;-74
2023/11/18 00:12:46;;;;;;;2.03;1.92;;;5.40;99.90;;;;;;5041712;28;20250;-74
2023/11/18 00:15:13;;;;;;;2.25;2.15;;;5.50;99.90;;;;;;5048021;28;20353;-74
2023/11/18 00:17:40;;;;;;;2.20;2.10;;;5.50;99.90;;;;;;5041109;28;20241;-74
2023/11/18 00:20:11;;;;;;;1.92;1.88;;;5.60;99.90;;;;;;5044756;28;20312;-73
2023/11/18 00:22:39;;;;;;;2.20;2.10;;;5.70;99.90;;;;;;5046879;28;20225;-75
2023/11/18 00:25:08;;;;;;;2.03;1.92;;;5.80;99.90;;;;;;5040613;28;20235;-74
2023/11/18 00:27:36;;;;;;;1.98;1.90;;;5.80;99.90;;;;;;5043293;28;20218;-73
2023/11/18 00:30:08;;;;;;;2.05;1.95;;;5.80;99.90;;;;;;5044291;28;20314;-74
2023/11/18 00:32:35;;;;;;;2.30;2.20;;;5.80;99.90;;;;;;5039687;28;20215;-74
2023/11/18 00:35:04;;;;;;;2.17;2.08;;;5.80;99.90;;;;;;5029183;28;20231;-74
2023/11/18 00:37:32;;;;;;;2.45;2.35;;;5.70;99.90;;;;;;5024696;28;20728;-74
2023/11/18 00:39:59;;;;;;;2.83;2.70;;;5.70;99.90;;;;;;5024536;28;20218;-74
2023/11/18 00:42:28;;;;;;;2.95;2.75;;;5.70;99.90;;;;;;5022768;28;20628;-75
2023/11/18 00:44:55;;;;;;;2.33;2.22;;;5.70;99.90;;;;;;5023950;28;20293;-74
2023/11/18 00:47:23;;;;;;;2.40;2.25;;;5.80;99.90;;;;;;5027290;28;20282;-75
2023/11/18 00:49:51;;;;;;;2.10;2.00;;;5.80;99.90;;;;;;5035750;28;20251;-75
2023/11/18 00:52:19;;;;;;;2.05;1.95;;;5.80;99.90;;;;;;5040229;28;20288;-74
2023/11/18 00:54:46;;;;;;;2.35;2.25;;;5.80;99.90;;;;;;5038829;28;20296;-74
2023/11/18 00:57:13;;;;;;;2.35;2.25;;;5.80;99.90;;;;;;5041553;28;20264;-75
2023/11/18 00:59:44;;;;;;;2.65;2.55;;;5.90;99.90;;;;;;5040912;28;20276;-75
2023/11/18 01:02:12;;;;;;;2.70;2.50;;;6.00;99.90;;;;;;5038817;28;20227;-74
2023/11/18 01:04:38;;;;;;;2.20;2.10;;;5.90;99.90;;;;;;5039425;28;20912;-74
2023/11/18 01:07:06;;;;;;;2.40;2.30;;;5.70;99.90;;;;;;5041565;28;20207;-74
2023/11/18 01:09:36;;;;;;;2.15;2.05;;;5.50;99.90;;;;;;5040591;28;20214;-73
2023/11/18 01:12:05;;;;;;;2.33;2.22;;;5.40;99.90;;;;;;5041580;28;20222;-74
2023/11/18 01:14:32;;;;;;;2.28;2.17;;;5.20;99.90;;;;;;5039850;28;20218;-74
2023/11/18 01:17:00;;;;;;;2.30;2.20;;;5.20;99.90;;;;;;5043959;28;20199;-75
2023/11/18 01:19:28;;;;;;;2.13;2.03;;;5.20;99.90;;;;;;5041339;28;20277;-74
2023/11/18 01:21:55;;;;;;;2.17;2.08;;;5.20;99.90;;;;;;5041297;28;20314;-74
2023/11/18 01:24:22;;;;;;;1.90;1.90;;;5.20;99.90;;;;;;5043947;28;20222;-73
2023/11/18 01:26:49;;;;;;;2.15;2.05;;;5.20;99.90;;;;;;5043548;28;20199;-74
2023/11/18 01:29:16;;;;;;;2.13;2.03;;;5.20;99.90;;;;;;5039662;28;20230;-75
2023/11/18 01:31:44;;;;;;;2.20;2.10;;;5.30;99.90;;;;;;5042206;28;20203;-74
2023/11/18 01:34:12;;;;;;;2.00;1.98;;;5.30;99.90;;;;;;5038966;28;20222;-76
2023/11/18 01:36:39;;;;;;;2.25;2.15;;;5.30;99.90;;;;;;5041068;28;20221;-74
2023/11/18 01:39:07;;;;;;;1.95;1.92;;;5.30;99.90;;;;;;5037129;28;20695;-74
2023/11/18 01:41:34;;;;;;;1.95;1.95;;;5.40;99.90;;;;;;5047303;28;20289;-74
2023/11/18 01:44:01;;;;;;;2.13;2.03;;;5.50;99.90;;;;;;5041600;28;20222;-75
2023/11/18 01:46:29;;;;;;;2.03;1.92;;;5.50;99.90;;;;;;5041365;28;20300;-74
2023/11/18 01:48:58;;;;;;;2.30;2.20;;;5.50;99.90;;;;;;5040715;28;20215;-74
2023/11/18 01:51:26;;;;;;;2.17;2.08;;;5.50;99.90;;;;;;5046073;28;20214;-74
2023/11/18 01:53:54;;;;;;;2.28;2.17;;;5.50;99.90;;;;;;5045176;28;20356;-74
2023/11/18 01:56:25;;;;;;;2.40;2.30;;;5.40;99.90;;;;;;5047021;28;20203;-74
2023/11/18 01:58:52;;;;;;;1.92;1.92;;;5.40;99.90;;;;;;5040805;28;20221;-72
2023/11/18 02:01:20;;;;;;;2.33;2.22;;;5.30;99.90;;;;;;5043652;28;20211;-74
2023/11/18 02:03:47;;;;;;;2.10;2.00;;;5.20;99.90;;;;;;5042406;28;20227;-74
2023/11/18 02:06:16;;;;;;;2.20;2.10;;;5.10;99.90;;;;;;5038698;28;20219;-74
2023/11/18 02:08:44;;;;;;;2.10;2.00;;;5.10;99.90;;;;;;5042665;28;20689;-74
2023/11/18 02:11:18;;;;;;;2.20;2.10;;;5.10;99.90;;;;;;5044488;28;20203;-76
2023/11/18 02:13:49;;;;;;;2.10;2.00;;;5.10;99.90;;;;;;5040657;28;20671;-75
2023/11/18 02:16:17;;;;;;;2.10;2.00;;;5.10;99.90;;;;;;5040800;28;20211;-74
2023/11/18 02:18:46;;;;;;;2.20;2.10;;;5.10;99.90;;;;;;5040152;28;20305;-75
2023/11/18 02:21:14;;;;;;;2.20;2.10;;;5.10;99.90;;;;;;5042788;28;20864;-73
2023/11/18 02:23:42;;;;;;;1.80;1.80;;;5.10;99.90;;;;;;5041531;28;20755;-74
2023/11/18 02:26:10;;;;;;;2.20;2.10;;;5.10;99.90;;;;;;5041887;28;20264;-74
2023/11/18 02:28:38;;;;;;;2.15;2.05;;;5.00;99.90;;;;;;5046240;28;20222;-75
2023/11/18 02:31:15;;;;;;;1.83;1.83;;;5.10;99.90;;;;;;5050756;28;20199;-74
2023/11/18 02:33:50;;;;;;;1.88;1.88;;;5.10;99.90;;;;;;5046801;28;20705;-75
2023/11/18 02:36:24;;;;;;;2.10;2.00;;;5.10;99.90;;;;;;5046558;28;20260;-74
2023/11/18 02:38:54;;;;;;;2.20;2.10;;;5.00;99.90;;;;;;5042259;28;20697;-74
2023/11/18 02:41:24;;;;;;;2.00;2.00;;;5.00;99.90;;;;;;5044785;28;20209;-75
2023/11/18 02:43:51;;;;;;;1.92;1.92;;;5.00;99.90;;;;;;5041582;28;20219;-74
2023/11/18 02:46:19;;;;;;;1.98;1.98;;;5.00;99.90;;;;;;5046526;28;20619;-75
2023/11/18 02:48:46;;;;;;;2.20;2.10;;;4.90;99.90;;;;;;5042519;28;22343;-74
2023/11/18 02:51:13;;;;;;;2.00;2.00;;;4.90;99.90;;;;;;5048181;28;20682;-75
2023/11/18 02:53:44;;;;;;;2.15;2.05;;;4.90;99.90;;;;;;5042136;28;20284;-74
2023/11/18 02:56:11;;;;;;;2.10;2.00;;;4.90;99.90;;;;;;5041144;28;20405;-74
2023/11/18 02:58:40;;;;;;;1.83;1.83;;;4.90;99.90;;;;;;5043575;28;20218;-75
2023/11/18 03:01:07;;;;;;;2.08;2.08;;;4.90;99.90;;;;;;5039208;28;20203;-73
2023/11/18 03:03:34;;;;;;;2.00;1.90;;;4.90;99.90;;;;;;5041435;28;20222;-75
2023/11/18 03:06:01;;;;;;;2.20;2.10;;;4.80;99.90;;;;;;5040842;28;20677;-75
2023/11/18 03:08:29;;;;;;;2.03;1.92;;;4.80;99.90;;;;;;5046154;28;20235;-74
2023/11/18 03:10:58;;;;;;;2.33;2.22;;;4.80;99.90;;;;;;5044963;28;20655;-74
2023/11/18 03:13:25;;;;;;;1.90;1.80;;;4.80;99.90;;;;;;5041713;28;20223;-74
2023/11/18 03:15:53;;;;;;;2.35;2.25;;;4.70;99.90;;;;;;5043001;28;20673;-74
2023/11/18 03:18:20;;;;;;;2.40;2.30;;;4.70;99.90;;;;;;5042349;28;20211;-73
2023/11/18 03:20:48;;;;;;;2.50;2.40;;;4.60;99.90;;;;;;5041799;28;20214;-74
2023/11/18 03:23:15;;;;;;;2.00;1.90;;;4.40;99.90;;;;;;5040383;28;20233;-75
2023/11/18 03:25:43;;;;;;;2.35;2.13;;;4.30;99.90;;;;;;5044675;28;20199;-74
2023/11/18 03:28:10;;;;;;;2.40;2.30;;;4.30;99.90;;;;;;5044963;28;20234;-74
2023/11/18 03:30:37;;;;;;;2.25;2.15;;;4.30;99.90;;;;;;5045466;28;20266;-74
2023/11/18 03:33:10;;;;;;;2.58;2.47;;;4.40;99.90;;;;;;5047026;28;20222;-75
2023/11/18 03:35:38;;;;;;;2.40;2.30;;;4.60;99.90;;;;;;5043628;28;20199;-74
2023/11/18 03:38:05;;;;;;;2.42;2.33;;;4.60;99.90;;;;;;5040616;28;20213;-74
2023/11/18 03:40:35;;;;;;;2.08;1.98;;;4.50;99.90;;;;;;5042767;28;20288;-74
2023/11/18 03:43:03;;;;;;;2.40;2.30;;;4.40;99.90;;;;;;5041497;28;20255;-73
2023/11/18 03:45:30;;;;;;;2.22;2.13;;;4.30;99.90;;;;;;5024946;28;20216;-74
2023/11/18 03:47:57;;;;;;;2.47;2.38;;;4.30;99.90;;;;;;5024823;28;20265;-75
2023/11/18 03:50:25;;;;;;;2.40;2.30;;;4.30;99.90;;;;;;5044832;28;20613;-74
2023/11/18 03:52:52;;;;;;;2.40;2.30;;;4.30;99.90;;;;;;5044182;28;20222;-74
2023/11/18 03:55:19;;;;;;;2.40;2.30;;;4.30;99.90;;;;;;5043580;28;20679;-74
2023/11/18 03:57:46;;;;;;;2.15;2.05;;;4.30;99.90;;;;;;5042925;28;20295;-74
2023/11/18 04:00:17;;;;;;;2.47;2.38;;;4.30;99.90;;;;;;5045296;28;20211;-74
2023/11/18 04:02:45;;;;;;;2.40;2.30;;;4.30;99.90;;;;;;5044917;28;20269;-75
2023/11/18 04:05:13;;;;;;;2.17;2.08;;;4.30;99.90;;;;;;5042030;28;20227;-75
2023/11/18 04:07:42;;;;;;;2.67;2.47;;;4.40;99.90;;;;;;5049115;28;20261;-74
2023/11/18 04:10:10;;;;;;;1.92;1.92;;;4.50;99.90;;;;;;5045770;28;20249;-74
2023/11/18 04:12:37;;;;;;;2.22;2.13;;;4.50;99.90;;;;;;5044449;28;20218;-73
2023/11/18 04:15:06;;;;;;;2.20;2.10;;;4.50;99.90;;;;;;5041665;28;20388;-75
2023/11/18 04:17:33;;;;;;;2.20;2.10;;;4.50;99.90;;;;;;5045601;28;20203;-75
2023/11/18 04:20:00;;;;;;;2.00;2.00;;;4.50;99.90;;;;;;5044923;28;20207;-75
2023/11/18 04:22:27;;;;;;;2.20;2.10;;;4.50;99.90;;;;;;5044716;28;20987;-75
2023/11/18 04:24:55;;;;;;;2.50;2.40;;;4.50;99.90;;;;;;5043355;28;20280;-74
2023/11/18 04:27:23;;;;;;;2.50;2.40;;;4.50;99.90;;;;;;5041037;28;20348;-74
2023/11/18 04:29:49;;;;;;;2.30;2.20;;;4.50;99.90;;;;;;5042383;28;20659;-75
2023/11/18 04:32:16;;;;;;;2.33;2.22;;;4.40;99.90;;;;;;5043520;28;20289;-74
2023/11/18 04:34:43;;;;;;;2.30;2.20;;;4.40;99.90;;;;;;5041081;28;20227;-74
2023/11/18 04:37:10;;;;;;;2.20;2.10;;;4.40;99.90;;;;;;5039889;28;20244;-74
2023/11/18 04:39:38;;;;;;;2.20;2.10;;;4.50;99.90;;;;;;5045312;28;20298;-75
2023/11/18 04:42:06;;;;;;;2.20;2.10;;;4.50;99.90;;;;;;5044051;28;20250;-75
2023/11/18 04:44:33;;;;;;;1.95;1.90;;;4.40;99.90;;;;;;5043950;28;20219;-75
2023/11/18 04:47:01;;;;;;;2.10;2.00;;;4.40;99.90;;;;;;5040888;28;20200;-75
2023/11/18 04:49:28;;;;;;;2.30;2.20;;;4.40;99.90;;;;;;5042816;28;21774;-76
2023/11/18 04:51:54;;;;;;;2.20;2.13;;;4.40;99.90;;;;;;5041688;28;20261;-75
2023/11/18 04:54:21;;;;;;;2.28;2.17;;;4.40;99.90;;;;;;5040610;28;20621;-75
2023/11/18 04:56:48;;;;;;;2.22;2.13;;;4.40;99.90;;;;;;5042841;28;20767;-74
2023/11/18 04:59:17;;;;;;;2.33;2.22;;;4.40;99.90;;;;;;5040662;28;20794;-75
2023/11/18 05:01:45;;;;;;;2.35;2.25;;;4.40;99.90;;;;;;5038581;28;20731;-75
2023/11/18 05:04:12;;;;;;;2.28;2.17;;;4.40;99.90;;;;;;5038051;28;20226;-74
2023/11/18 05:06:39;;;;;;;2.30;2.20;;;4.30;99.90;;;;;;5040523;28;20214;-75
2023/11/18 05:09:07;;;;;;;2.30;2.20;;;4.30;99.90;;;;;;5043205;28;20276;-75
2023/11/18 05:11:34;;;;;;;2.45;2.35;;;4.20;99.90;;;;;;5042041;28;20633;-74
2023/11/18 05:14:03;;;;;;;2.40;2.30;;;4.20;99.90;;;;;;5046742;28;20226;-76
2023/11/18 05:16:32;;;;;;;2.50;2.40;;;4.20;99.90;;;;;;5043414;28;20602;-74
2023/11/18 05:18:59;;;;;;;2.17;2.08;;;4.10;99.90;;;;;;5043351;28;20615;-76
2023/11/18 05:21:26;;;;;;;2.30;2.20;;;4.20;99.90;;;;;;5045528;28;20215;-74
2023/11/18 05:23:53;;;;;;;2.30;2.20;;;4.10;99.90;;;;;;5042047;28;20215;-75
2023/11/18 05:26:20;;;;;;;2.25;2.15;;;4.10;99.90;;;;;;5043215;28;20207;-75
2023/11/18 05:28:48;;;;;;;2.05;2.05;;;4.10;99.90;;;;;;5042783;28;20641;-74
2023/11/18 05:31:16;;;;;;;2.35;2.25;;;4.10;99.90;;;;;;5041447;28;20195;-74
2023/11/18 05:33:51;;;;;;;2.22;2.13;;;4.10;99.90;;;;;;5043601;28;20235;-74
2023/11/18 05:36:26;;;;;;;2.20;2.10;;;4.10;99.90;;;;;;5041624;28;20202;-75
2023/11/18 05:38:53;;;;;;;2.47;2.38;;;4.10;99.90;;;;;;5044319;28;20276;-74
2023/11/18 05:41:27;;;;;;;2.13;2.10;;;4.10;99.90;;;;;;5042728;28;20207;-75
2023/11/18 05:43:56;;;;;;;2.10;2.00;;;4.10;99.90;;;;;;5042562;28;20268;-75
2023/11/18 05:46:25;;;;;;;2.75;2.15;;;4.00;99.90;;;;;;5045485;28;20229;-74
2023/11/18 05:48:54;;;;;;;2.20;2.10;;;4.00;99.90;;;;;;5041598;28;20223;-76
2023/11/18 05:51:22;;;;;;;2.17;2.08;;;4.10;99.90;;;;;;5046259;28;20199;-74
2023/11/18 05:53:51;;;;;;;2.40;2.30;;;4.10;99.90;;;;;;5043069;28;20276;-74
2023/11/18 05:56:19;;;;;;;2.40;2.30;;;4.10;99.90;;;;;;5043679;28;20195;-74
2023/11/18 05:58:46;;;;;;;2.10;2.00;;;4.10;99.90;;;;;;5044173;28;20745;-74
2023/11/18 06:01:14;;;;;;;2.10;2.10;;;4.10;99.90;;;;;;5041916;28;20206;-74
2023/11/18 06:03:43;;;;;;;2.40;2.30;;;4.10;99.90;;;;;;5044928;28;20222;-75
2023/11/18 06:06:13;;;;;;;2.42;2.33;;;4.10;99.90;;;;;;5044776;28;20817;-75
2023/11/18 06:08:41;;;;;;;2.05;2.03;;;4.10;99.90;;;;;;5046396;28;20696;-76
2023/11/18 06:11:13;;;;;;;2.00;2.00;;;4.10;99.90;;;;;;5044149;28;20600;-75
2023/11/18 06:13:46;;;;;;;2.17;2.08;;;4.20;99.90;;;;;;5041863;28;20276;-75
2023/11/18 06:16:17;;;;;;;2.30;2.20;;;4.20;99.90;;;;;;5044191;28;20923;-74
2023/11/18 06:18:47;;;;;;;2.45;2.35;;;4.20;99.90;;;;;;5045570;28;20214;-74
2023/11/18 06:21:18;;;;;;;4.80;4.40;;;4.20;99.90;;;;;;5047599;28;20264;-74
2023/11/18 06:23:47;;;;;;;8.65;7.15;;;4.20;99.90;;;;;;5043384;28;20223;-74
2023/11/18 06:26:14;;;;;;;8.02;6.20;;;4.20;99.90;;;;;;5045959;28;20213;-76
2023/11/18 06:28:43;;;;;;;5.93;4.90;;;4.20;99.90;;;;;;5041802;28;20263;-75
2023/11/18 06:31:11;;;;;;;4.10;3.80;;;4.10;99.90;;;;;;5041216;28;20325;-74
2023/11/18 06:33:39;;;;;;;4.45;4.05;;;4.20;99.90;;;;;;5041367;28;21696;-75
2023/11/18 06:36:08;;;;;;;4.80;4.40;;;4.20;99.90;;;;;;5042332;28;20210;-73
2023/11/18 06:38:36;;;;;;;4.35;4.00;;;4.20;99.90;;;;;;5041367;28;20218;-73
2023/11/18 06:41:05;;;;;;;3.70;3.50;;;4.20;99.90;;;;;;5044078;28;20195;-74
2023/11/18 06:43:45;;;;;;;3.75;3.50;;;4.30;99.90;;;;;;5044045;28;20309;-73
2023/11/18 06:46:14;;;;;;;4.45;4.05;;;4.30;99.90;;;;;;5041285;28;20252;-74
2023/11/18 06:48:41;;;;;;;4.32;4.03;;;4.30;99.90;;;;;;5044211;28;20323;-75
2023/11/18 06:51:09;;;;;;;3.63;3.40;;;4.30;99.90;;;;;;5044613;28;20792;-74
2023/11/18 06:53:37;;;;;;;3.50;3.30;;;4.30;99.90;;;;;;5040255;28;20223;-74
2023/11/18 06:56:05;;;;;;;3.50;3.30;;;4.30;99.90;;;;;;5043051;28;20245;-74
2023/11/18 06:58:32;;;;;;;3.05;2.90;;;4.40;99.90;;;;;;5044208;28;20222;-74
2023/11/18 07:00:59;;;;;;;3.22;3.03;;;4.40;99.90;;;;;;5043123;28;20561;-73
2023/11/18 07:03:25;;;;;;;3.08;2.97;;;4.40;99.90;;;;;;5044203;28;20227;-75
2023/11/18 07:05:52;;;;;;;3.40;3.20;;;4.40;99.90;;;;;;5041431;28;20256;-74
2023/11/18 07:08:19;;;;;;;2.95;2.78;;;4.40;99.90;;;;;;5044164;28;20285;-75
2023/11/18 07:10:48;;;;;;;3.10;3.00;;;4.50;99.90;;;;;;5042423;28;20222;-74
2023/11/18 07:13:16;;;;;;;2.83;2.72;;;4.50;99.90;;;;;;5043079;28;20692;-75
2023/11/18 07:15:43;;;;;;;2.70;2.60;;;4.50;99.90;;;;;;5046106;28;20270;-75
2023/11/18 07:18:11;;;;;;;2.40;2.30;;;4.50;99.90;;;;;;5048244;28;20213;-74
2023/11/18 07:20:37;;;;;;;2.55;2.45;;;4.60;99.90;;;;;;5047238;28;20199;-74
2023/11/18 07:23:05;;;;;;;2.40;2.30;;;4.60;99.90;;;;;;5048173;28;20229;-76
2023/11/18 07:25:32;;;;;;;2.63;2.53;;;4.70;99.90;;;;;;5047246;28;20218;-74
2023/11/18 07:28:00;;;;;;;2.40;2.30;;;4.60;99.90;;;;;;5050197;28;20619;-74
2023/11/18 07:30:27;;;;;;;2.67;2.58;;;4.60;99.90;;;;;;5047172;28;20280;-75
2023/11/18 07:32:55;;;;;;;3.10;2.90;;;4.60;99.90;;;;;;5047667;28;20716;-76
2023/11/18 07:35:23;;;;;;;2.25;2.15;;;4.60;99.90;;;;;;5047330;28;20219;-74
2023/11/18 07:37:50;;;;;;;3.40;3.20;;;4.60;99.90;;;;;;5044783;28;20339;-76
2023/11/18 07:40:22;;;;;;;3.15;2.95;;;4.60;99.90;;;;;;5048200;28;20707;-74
2023/11/18 07:42:49;;;;;;;3.75;3.45;;;4.60;99.90;;;;;;5045405;28;20304;-74
2023/11/18 07:45:18;;;;;;;3.85;3.55;;;4.60;99.90;;;;;;5047127;28;20214;-75
2023/11/18 07:47:45;;;;;;;3.53;3.33;;;4.60;99.90;;;;;;5044449;28;20205;-74
2023/11/18 07:50:13;;;;;;;4.35;3.95;;;4.70;99.90;;;;;;5049248;28;20309;-75
2023/11/18 07:52:40;;;;;;;3.50;3.30;;;5.70;99.90;;;;;;5047232;28;20222;-75
2023/11/18 07:55:13;;;;;;;3.42;3.22;;;6.90;99.90;;;;;;5041276;28;20226;-75
2023/11/18 07:57:40;;;;;;;3.47;3.22;;;8.10;99.90;;;;;;5038410;28;20226;-73
2023/11/18 08:00:09;;;;;;;3.15;2.95;;;9.10;99.90;;;;;;5047158;28;20207;-74
2023/11/18 08:02:36;;;;;;;3.00;2.80;;;9.90;99.90;;;;;;5045839;28;20214;-73
2023/11/18 08:05:06;;;;;;;2.80;2.60;;;10.70;99.90;;;;;;5044527;28;20250;-74
2023/11/18 08:07:34;;;;;;;2.58;2.47;;;11.40;99.90;;;;;;5042762;28;20199;-73
2023/11/18 08:10:03;;;;;;;2.50;2.40;;;11.90;99.90;;;;;;5045434;28;20307;-74
2023/11/18 08:12:30;;;;;;;2.95;2.75;;;12.20;99.90;;;;;;5044754;28;20913;-73
2023/11/18 08:14:59;;;;;;;2.45;2.30;;;12.40;99.90;;;;;;5043917;28;20611;-74
2023/11/18 08:17:26;;;;;;;6.03;2.80;;;12.60;99.90;;;;;;5043543;28;20214;-75
2023/11/18 08:19:55;;;;;;;2.40;2.30;;;12.90;99.90;;;;;;5044712;28;20222;-75
2023/11/18 08:22:23;;;;;;;2.20;2.00;;;13.10;99.90;;;;;;5041750;28;20226;-74
2023/11/18 08:24:50;;;;;;;2.03;1.92;;;13.20;99.90;;;;;;5043973;28;20310;-74
2023/11/18 08:27:17;;;;;;;2.00;1.90;;;13.50;99.90;;;;;;5042627;28;20282;-74
2023/11/18 08:29:46;;;;;;;1.98;1.88;;;13.80;99.90;;;;;;5042703;28;20227;-73
2023/11/18 08:32:13;;;;;;;2.20;2.08;;;14.00;99.90;;;;;;5040703;28;20222;-75
2023/11/18 08:34:40;;;;;;;2.13;2.00;;;14.30;99.90;;;;;;5045138;28;20222;-75
2023/11/18 08:37:09;;;;;;;2.65;2.42;;;14.30;99.90;;;;;;5042654;28;20190;-74
2023/11/18 08:39:36;;;;;;;2.10;2.00;;;14.50;99.90;;;;;;5037461;28;20272;-75
2023/11/18 08:42:03;;;;;;;1.83;1.73;;;14.30;99.90;;;;;;5034901;28;20276;-73
2023/11/18 08:44:32;;;;;;;2.33;2.13;;;14.30;99.90;;;;;;5037107;28;20227;-73
2023/11/18 08:46:59;;;;;;;2.40;2.20;;;14.40;99.90;;;;;;5039756;28;20209;-75
2023/11/18 08:49:29;;;;;;;1.98;1.88;;;14.50;99.90;;;;;;5036017;28;20285;-72
2023/11/18 08:51:58;;;;;;;2.55;2.35;;;14.50;99.90;;;;;;5039670;28;20249;-74
2023/11/18 08:54:36;;;;;;;2.65;2.45;;;14.70;99.90;;;;;;5040031;28;20226;-74
2023/11/18 08:57:15;;;;;;;2.47;2.28;;;14.70;99.90;;;;;;5039381;28;20202;-76
2023/11/18 08:59:42;;;;;;;3.00;2.33;;;14.90;99.90;;;;;;5037762;28;20782;-74
2023/11/18 09:02:13;;;;;;;2.25;2.08;;;15.30;99.90;;;;;;5037019;28;20442;-74
2023/11/18 09:04:42;;;;;;;2.40;2.20;;;15.70;99.90;;;;;;5037764;28;20736;-74
2023/11/18 09:07:10;;;;;;;2.17;1.98;;;16.60;99.90;;;;;;5040089;28;20199;-74
2023/11/18 09:09:39;;;;;;;3.38;2.13;;;18.00;99.90;;;;;;5039497;28;20335;-73
2023/11/18 09:12:08;;;;;;;2.10;1.90;;;19.60;99.90;;;;;;5036975;28;20302;-76
2023/11/18 09:14:35;;;;;;;2.40;2.20;;;21.20;99.40;;;;;;5037848;28;20214;-73
2023/11/18 09:17:02;;;;;;;3.40;2.50;;;22.00;96.50;;;;;;5039506;28;20203;-75
2023/11/18 09:19:29;;;;;;;2.40;2.20;;;22.40;93.60;;;;;;5038821;28;20222;-74
2023/11/18 09:21:56;;;;;;;2.13;1.92;;;22.50;91.50;;;;;;5036330;28;20324;-74
2023/11/18 09:24:24;;;;;;;1.60;1.50;;;22.20;90.40;;;;;;5035964;28;21059;-74
2023/11/18 09:26:54;;;;;;;1.60;1.50;;;21.60;86.20;;;;;;5033055;28;20199;-74
2023/11/18 09:29:24;;;;;;;1.52;1.30;;;20.80;89.60;;;;;;5032859;28;20230;-75
2023/11/18 09:31:52;;;;;;;1.35;1.33;;;19.80;89.60;;;;;;5036061;28;20281;-76
2023/11/18 09:34:26;;;;;;;1.60;1.50;;;18.70;91.70;;;;;;5033191;28;20230;-74
2023/11/18 09:36:54;;;;;;;1.85;1.60;;;17.50;92.70;;;;;;5032526;28;20234;-75
2023/11/18 09:39:37;;;;;;;1.95;1.75;;;16.60;94.50;;;;;;5034997;28;20215;-75
2023/11/18 09:42:08;;;;;;;1.52;1.42;;;16.00;96.70;;;;;;5039793;28;20862;-75
2023/11/18 09:44:38;;;;;;;1.80;1.70;;;15.40;98.20;;;;;;5040609;28;20218;-75
2023/11/18 09:47:09;;;;;;;1.70;1.60;;;15.40;99.40;;;;;;5039805;28;20264;-74
2023/11/18 09:49:43;;;;;;;1.92;1.80;;;15.40;99.90;;;;;;5040797;28;20218;-75
2023/11/18 09:52:18;;;;;;;2.30;1.50;;;15.60;99.40;;;;;;5040223;28;20219;-75
2023/11/18 09:54:58;;;;;;;1.58;1.48;;;15.70;96.30;;;;;;5040201;28;20609;-75
2023/11/18 09:57:33;;;;;;;1.30;1.30;;;15.90;97.30;;;;;;5040932;28;20199;-75
2023/11/18 10:00:19;;;;;;;1.40;1.40;;;16.00;96.60;;;;;;5038812;28;20908;-75
2023/11/18 10:02:46;;;;;;;1.42;1.33;;;16.40;97.10;;;;;;5038070;28;20227;-75
2023/11/18 10:05:14;;;;;;;1.30;1.30;;;16.60;97.60;;;;;;5037447;28;20775;-75
2023/11/18 10:07:42;;;;;;;1.73;1.63;;;16.70;96.50;;;;;;5038240;28;20199;-74
2023/11/18 10:10:14;;;;;;;1.98;1.88;;;16.40;98.60;;;;;;5036762;28;20222;-75
2023/11/18 10:12:44;;;;;;;3.05;2.15;;;16.00;98.80;;;;;;5034535;28;20215;-75
2023/11/18 10:15:14;;;;;;;2.63;2.40;;;15.60;99.80;;;;;;5040204;28;20246;-75
2023/11/18 10:17:54;;;;;;;2.60;2.40;;;15.50;99.90;;;;;;5034408;28;20282;-75
2023/11/18 10:20:25;;;;;;;3.35;2.40;;;15.50;99.90;;;;;;5031424;28;20300;-75
2023/11/18 10:23:10;;;;;;;2.70;2.25;;;15.70;99.90;;;;;;5033152;28;20233;-76
2023/11/18 10:25:40;;;;;;;1.77;1.67;;;16.00;99.90;;;;;;5028950;28;20230;-76
2023/11/18 10:28:10;;;;;;;1.30;1.20;;;16.00;98.90;;;;;;5035176;28;20194;-75
2023/11/18 10:30:46;;;;;;;1.35;1.15;;;16.00;98.00;;;;;;5031779;28;20309;-76
2023/11/18 10:33:16;;;;;;;1.45;1.40;;;15.80;97.10;;;;;;5037430;28;20222;-75
2023/11/18 10:35:52;;;;;;;2.75;1.50;;;15.80;97.20;;;;;;5032507;28;20784;-74
2023/11/18 10:38:19;;;;;;;2.88;2.45;;;16.10;97.20;;;;;;5033959;28;21119;-75
2023/11/18 10:40:47;;;;;;;2.30;2.15;;;16.30;99.90;;;;;;5035899;28;20654;-75
2023/11/18 10:43:16;;;;;;;2.53;2.33;;;16.70;99.90;;;;;;5036900;28;20226;-75
2023/11/18 10:45:46;;;;;;;2.00;1.80;;;16.90;98.30;;;;;;5034605;28;20277;-77
2023/11/18 10:48:16;;;;;;;3.25;2.55;;;16.90;97.10;;;;;;5033363;28;20207;-74
2023/11/18 10:50:46;;;;;;;4.32;2.70;;;17.00;98.50;;;;;;5037622;28;20223;-75
2023/11/18 10:53:16;;;;;;;6.07;2.92;;;16.90;99.40;;;;;;5037049;28;20277;-76
2023/11/18 10:55:43;;;;;;;2.53;2.33;;;16.80;99.40;;;;;;5039533;28;20206;-74
2023/11/18 10:58:12;;;;;;;2.25;2.05;;;16.80;99.90;;;;;;5039619;28;20208;-76
2023/11/18 11:00:53;;;;;;;1.90;1.80;;;16.80;98.60;;;;;;5016838;28;20219;-75
2023/11/18 11:03:23;;;;;;;2.45;1.65;;;16.50;97.10;;;;;;5016310;28;20227;-75
2023/11/18 11:05:50;;;;;;;1.95;1.35;;;16.60;97.80;;;;;;5040601;28;20294;-76
2023/11/18 11:08:18;;;;;;;1.60;1.50;;;16.80;96.10;;;;;;5041143;28;20199;-78
2023/11/18 11:10:49;;;;;;;2.05;1.85;;;16.80;96.00;;;;;;5042245;28;20238;-77
2023/11/18 11:13:19;;;;;;;1.67;1.58;;;16.90;95.70;;;;;;5045370;28;20222;-77
2023/11/18 11:15:52;;;;;;;1.30;1.20;;;17.00;95.50;;;;;;5040264;28;20203;-75
2023/11/18 11:18:27;;;;;;;1.50;1.40;;;17.00;95.20;;;;;;5040891;28;20203;-76
2023/11/18 11:21:03;;;;;;;1.50;1.40;;;16.80;92.50;;;;;;5037399;28;20285;-75
2023/11/18 11:23:43;;;;;;;1.70;1.60;;;16.70;92.40;;;;;;5035664;28;20218;-76
2023/11/18 11:26:22;;;;;;;1.45;1.40;;;16.60;93.30;;;;;;5038214;28;20195;-78
2023/11/18 11:28:58;;;;;;;1.20;1.20;;;16.50;92.40;;;;;;5037688;28;20218;-75
2023/11/18 11:31:33;;;;;;;1.20;1.20;;;16.80;90.80;;;;;;5037590;28;20218;-75
2023/11/18 11:34:06;;;;;;;1.20;1.20;;;17.10;91.00;;;;;;5036674;28;20309;-74
2023/11/18 11:36:46;;;;;;;1.25;1.17;;;17.10;90.00;;;;;;5033382;28;20645;-75
2023/11/18 11:39:15;;;;;;;1.20;1.20;;;17.00;90.20;;;;;;5038577;28;20823;-76
2023/11/18 11:41:46;;;;;;;1.55;1.42;;;16.90;90.90;;;;;;5040303;28;20334;-76
2023/11/18 11:44:14;;;;;;;1.10;1.10;;;16.90;91.70;;;;;;5040132;28;20317;-76
2023/11/18 11:46:41;;;;;;;1.08;1.08;;;16.70;89.50;;;;;;5041696;28;20882;-76
2023/11/18 11:49:18;;;;;;;1.30;1.20;;;16.60;87.90;;;;;;5038812;28;21434;-76
2023/11/18 11:51:49;;;;;;;1.17;1.17;;;16.50;87.70;;;;;;5042163;28;20214;-75
2023/11/18 11:54:22;;;;;;;1.35;1.27;;;16.60;90.60;;;;;;5038038;28;20219;-75
2023/11/18 11:56:59;;;;;;;1.40;1.30;;;16.80;90.20;;;;;;5036885;28;20206;-76
2023/11/18 11:59:57;;;;;;;1.13;1.13;;;17.00;90.80;;;;;;5036535;28;20227;-77
2023/11/18 12:02:32;;;;;;;1.00;1.00;;;16.80;81.70;;;;;;5034996;28;20321;-76
2023/11/18 12:05:06;;;;;;;1.27;1.17;;;16.80;89.90;;;;;;5031399;28;20229;-77
2023/11/18 12:07:38;;;;;;;1.27;1.25;;;16.80;85.80;;;;;;5040968;28;20198;-77
2023/11/18 12:10:13;;;;;;;1.58;1.45;;;16.60;86.20;;;;;;5035995;28;20218;-77
2023/11/18 12:12:42;;;;;;;1.40;1.30;;;16.50;87.00;;;;;;5041010;28;20240;-76
2023/11/18 12:15:11;;;;;;;2.30;1.70;;;16.50;90.50;;;;;;5039065;28;20231;-75
2023/11/18 12:18:14;;;;;;;3.60;1.20;;;16.60;90.20;;;;;;5041263;28;20294;-75
2023/11/18 12:20:47;;;;;;;1.30;1.20;;;16.30;88.70;;;;;;5038160;28;20288;-76
2023/11/18 12:23:15;;;;;;;2.10;1.40;;;16.00;90.60;;;;;;5040156;28;20838;-76
2023/11/18 12:25:42;;;;;;;1.25;1.17;;;15.90;91.00;;;;;;5036841;28;20585;-77
2023/11/18 12:28:10;;;;;;;1.50;1.40;;;15.70;90.70;;;;;;5039449;28;20206;-76
2023/11/18 12:30:55;;;;;;;1.90;1.20;;;15.60;90.70;;;;;;5040162;28;20231;-76
2023/11/18 12:33:24;;;;;;;1.10;1.10;;;15.50;91.50;;;;;;5044103;28;20222;-76
2023/11/18 12:36:47;;;;;;;2.20;1.40;;;15.60;92.00;;;;;;5041560;28;20245;-76
2023/11/18 12:39:59;;;;;;;1.45;1.35;;;15.80;91.80;;;;;;5038167;28;20276;-76
2023/11/18 12:42:59;;;;;;;1.33;1.23;;;15.80;91.40;;;;;;4987935;28;20220;-75
2023/11/18 12:46:17;;;;;;;1.30;1.20;;;15.80;92.40;;;;;;5038503;28;20933;-75
2023/11/18 12:48:51;;;;;;;1.60;1.48;;;15.70;93.10;;;;;;5039559;28;20649;-75
2023/11/18 12:51:23;;;;;;;1.70;1.20;;;15.60;93.10;;;;;;5040174;28;20709;-76
2023/11/18 12:53:53;;;;;;;1.30;1.20;;;15.40;92.60;;;;;;5039910;28;20995;-74
2023/11/18 12:56:20;;;;;;;1.67;1.25;;;15.50;93.50;;;;;;5038544;28;20224;-74
2023/11/18 12:58:48;;;;;;;1.10;1.00;;;15.40;93.50;;;;;;5037752;28;20253;-75
2023/11/18 13:01:15;;;;;;;1.40;1.30;;;15.20;93.40;;;;;;5042971;28;20211;-75
2023/11/18 13:03:44;;;;;;;1.40;1.30;;;14.90;93.10;;;;;;5034912;28;20222;-75
2023/11/18 13:06:11;;;;;;;1.40;1.30;;;14.60;93.60;;;;;;5037202;28;20558;-76